Time;durP1;ratioP1;P1;durP2;ratioP2;P2;SDS_P1;SDS_P2;PMS_P1;PMS_P2;Temp;Humidity;BMP_temperature;BMP_pressure;BME280_temperature;BME280_humidity;BME280_pressure;Samples;Min_cycle;Max_cycle;Signal;HPM_P1;HPM_P2
2022/10/19 00:01:03;;;;;;;0.10;0.10;;;9.70;99.90;;;;;;5078044;28;20087;-86
2022/10/19 00:03:30;;;;;;;0.10;0.10;;;9.60;99.90;;;;;;5081924;28;20140;-86
2022/10/19 00:05:57;;;;;;;0.10;0.10;;;9.60;99.90;;;;;;5085924;28;20044;-84
2022/10/19 00:08:24;;;;;;;0.10;0.10;;;9.50;99.90;;;;;;5077794;28;20074;-86
2022/10/19 00:10:52;;;;;;;0.00;0.00;;;9.50;99.90;;;;;;5081360;28;20044;-86
2022/10/19 00:13:18;;;;;;;0.10;0.10;;;10.60;99.90;;;;;;5079641;28;20044;-85
2022/10/19 00:15:45;;;;;;;0.10;0.10;;;9.50;99.90;;;;;;5078993;28;20052;-85
2022/10/19 00:18:12;;;;;;;0.10;0.10;;;9.40;99.90;;;;;;5081506;28;20414;-85
2022/10/19 00:20:39;;;;;;;0.00;0.00;;;9.50;99.90;;;;;;5083699;28;20052;-84
2022/10/19 00:23:06;;;;;;;0.00;0.00;;;9.40;99.90;;;;;;5081855;28;20047;-85
2022/10/19 00:25:33;;;;;;;0.10;0.10;;;;;;;;;;5086086;28;20055;-87
2022/10/19 00:28:02;;;;;;;0.10;0.10;;;9.40;99.90;;;;;;5079087;28;20046;-86
2022/10/19 00:30:29;;;;;;;0.00;0.00;;;9.30;99.90;;;;;;5097294;28;20060;-86
2022/10/19 00:32:56;;;;;;;0.00;0.00;;;9.30;99.90;;;;;;5089239;28;20296;-84
2022/10/19 00:35:23;;;;;;;0.10;0.10;;;9.90;99.90;;;;;;5076787;28;20115;-84
2022/10/19 00:37:50;;;;;;;0.10;0.10;;;9.30;99.90;;;;;;5076715;28;20035;-87
2022/10/19 00:40:17;;;;;;;0.10;0.10;;;9.30;99.90;;;;;;5079598;28;20040;-86
2022/10/19 00:42:44;;;;;;;0.10;0.10;;;9.20;99.90;;;;;;5077819;28;20044;-85
2022/10/19 00:45:15;;;;;;;0.05;0.05;;;10.80;99.90;;;;;;5088688;28;20041;-85
2022/10/19 00:47:43;;;;;;;0.10;0.10;;;9.10;99.90;;;;;;5085600;28;20053;-82
2022/10/19 00:50:13;;;;;;;0.10;0.10;;;9.10;99.90;;;;;;5084588;28;20059;-86
2022/10/19 00:52:40;;;;;;;0.10;0.10;;;9.10;99.90;;;;;;5083863;28;20054;-85
2022/10/19 00:55:08;;;;;;;0.10;0.10;;;9.10;99.90;;;;;;5078853;28;20048;-84
2022/10/19 00:57:35;;;;;;;0.10;0.10;;;9.00;99.90;;;;;;5083652;28;20044;-84
2022/10/19 01:00:05;;;;;;;0.03;0.03;;;9.00;99.90;;;;;;5083971;28;20086;-85
2022/10/19 01:02:34;;;;;;;0.10;0.10;;;8.90;99.90;;;;;;5075028;28;20125;-84
2022/10/19 01:05:03;;;;;;;0.10;0.10;;;9.10;99.90;;;;;;5078866;28;20043;-88
2022/10/19 01:07:31;;;;;;;0.10;0.10;;;8.80;99.90;;;;;;5087597;28;20318;-86
2022/10/19 01:09:59;;;;;;;0.10;0.10;;;8.80;99.90;;;;;;5075394;28;20048;-82
2022/10/19 01:13:06;;;;;;;0.10;0.10;;;8.80;99.90;;;;;;5088438;28;20044;-88
2022/10/19 01:15:43;;;;;;;0.10;0.10;;;8.70;99.90;;;;;;5076393;28;20399;-84
2022/10/19 01:18:19;;;;;;;0.10;0.10;;;8.70;99.90;;;;;;5079515;28;20414;-85
2022/10/19 01:21:12;;;;;;;0.00;0.00;;;8.60;99.90;;;;;;5085997;28;20504;-86
2022/10/19 01:24:21;;;;;;;0.10;0.10;;;8.70;99.90;;;;;;5079667;28;20044;-85
2022/10/19 01:27:17;;;;;;;0.10;0.10;;;8.70;99.90;;;;;;5059626;28;20056;-84
2022/10/19 01:30:11;;;;;;;0.10;0.10;;;8.60;99.90;;;;;;5076663;28;20488;-84
2022/10/19 01:32:51;;;;;;;0.10;0.10;;;8.60;99.90;;;;;;5075843;28;20043;-85
2022/10/19 01:35:27;;;;;;;0.10;0.10;;;8.50;99.90;;;;;;5098253;28;20062;-86
2022/10/19 01:38:03;;;;;;;0.10;0.10;;;8.50;99.90;;;;;;5085035;28;20136;-84
2022/10/19 01:40:39;;;;;;;0.10;0.10;;;8.50;99.90;;;;;;5077887;28;20719;-84
2022/10/19 01:43:11;;;;;;;0.10;0.10;;;8.70;99.90;;;;;;5084059;28;20042;-87
2022/10/19 01:45:46;;;;;;;0.10;0.10;;;8.50;99.90;;;;;;5079670;28;20131;-86
2022/10/19 01:48:16;;;;;;;0.10;0.10;;;8.50;99.90;;;;;;5078038;28;20051;-86
2022/10/19 01:50:48;;;;;;;0.08;0.08;;;8.50;99.90;;;;;;5078233;28;20047;-84
2022/10/19 01:53:17;;;;;;;0.10;0.10;;;8.50;99.90;;;;;;5085728;28;20051;-85
2022/10/19 01:55:49;;;;;;;0.10;0.10;;;8.40;99.90;;;;;;5085362;28;20063;-84
2022/10/19 01:58:20;;;;;;;0.00;0.00;;;8.40;99.90;;;;;;5077205;28;20062;-85
2022/10/19 02:00:51;;;;;;;0.10;0.10;;;8.40;99.90;;;;;;5082494;28;20054;-87
2022/10/19 02:03:18;;;;;;;0.10;0.10;;;8.40;99.90;;;;;;5082427;28;20260;-84
2022/10/19 02:05:48;;;;;;;0.10;0.10;;;8.40;99.90;;;;;;5082284;28;20121;-84
2022/10/19 02:08:22;;;;;;;0.10;0.10;;;8.40;99.90;;;;;;5083939;28;20053;-86
2022/10/19 02:10:50;;;;;;;0.10;0.10;;;8.50;99.90;;;;;;5079872;28;20043;-84
2022/10/19 02:13:18;;;;;;;0.10;0.10;;;8.50;99.90;;;;;;5085465;28;20051;-85
2022/10/19 02:15:50;;;;;;;0.10;0.10;;;8.80;99.90;;;;;;5083152;28;20054;-84
2022/10/19 02:18:22;;;;;;;0.10;0.10;;;8.60;99.90;;;;;;5076694;28;20045;-86
2022/10/19 02:20:49;;;;;;;0.10;0.10;;;8.70;99.90;;;;;;5083650;28;20040;-84
2022/10/19 02:23:19;;;;;;;0.10;0.10;;;8.80;99.90;;;;;;5081099;28;20060;-85
2022/10/19 02:25:46;;;;;;;0.10;0.10;;;9.00;99.90;;;;;;5087293;28;20123;-84
2022/10/19 02:28:13;;;;;;;0.10;0.10;;;8.90;99.90;;;;;;5083063;28;20048;-87
2022/10/19 02:30:41;;;;;;;0.10;0.10;;;8.90;99.90;;;;;;5078991;28;20060;-84
2022/10/19 02:33:11;;;;;;;0.10;0.10;;;9.00;99.90;;;;;;5099781;28;20040;-86
2022/10/19 02:35:38;;;;;;;;;;;9.00;99.90;;;;;;5086162;28;20080;-84
2022/10/19 02:38:07;;;;;;;0.10;0.10;;;9.10;99.90;;;;;;5099961;28;19920;-86
2022/10/19 02:40:40;;;;;;;0.10;0.10;;;9.10;99.90;;;;;;5087938;28;20052;-84
2022/10/19 02:43:12;;;;;;;0.10;0.10;;;9.10;99.90;;;;;;5082072;28;20580;-87
2022/10/19 02:45:44;;;;;;;0.08;0.08;;;9.20;99.90;;;;;;5073961;28;20099;-85
2022/10/19 02:48:18;;;;;;;0.10;0.10;;;9.20;99.90;;;;;;5079101;28;20524;-83
2022/10/19 02:50:48;;;;;;;0.10;0.10;;;10.70;99.90;;;;;;5081335;28;20055;-85
2022/10/19 02:53:15;;;;;;;0.10;0.10;;;9.20;99.90;;;;;;5084713;28;20051;-86
2022/10/19 02:55:43;;;;;;;0.10;0.10;;;9.20;99.90;;;;;;5076517;28;20078;-87
2022/10/19 02:58:09;;;;;;;0.10;0.10;;;10.50;99.90;;;;;;5080177;28;20037;-85
2022/10/19 03:00:37;;;;;;;0.00;0.00;;;;;;;;;;5086616;28;20123;-84
2022/10/19 03:03:03;;;;;;;0.10;0.10;;;9.40;99.90;;;;;;5085645;28;20048;-84
2022/10/19 03:05:32;;;;;;;0.00;0.00;;;9.50;99.90;;;;;;5088096;28;20053;-84
2022/10/19 03:07:58;;;;;;;0.10;0.10;;;9.50;99.90;;;;;;5084996;28;20127;-84
2022/10/19 03:10:25;;;;;;;0.10;0.10;;;9.60;99.90;;;;;;5087822;28;20123;-85
2022/10/19 03:12:52;;;;;;;0.10;0.10;;;9.60;99.90;;;;;;5088436;28;20047;-86
2022/10/19 03:15:19;;;;;;;0.10;0.10;;;9.60;99.90;;;;;;5077219;28;20128;-86
2022/10/19 03:17:46;;;;;;;0.10;0.10;;;9.60;99.90;;;;;;5082003;28;20056;-84
2022/10/19 03:20:12;;;;;;;0.00;0.00;;;9.60;99.90;;;;;;5084380;28;20555;-86
2022/10/19 03:22:41;;;;;;;0.03;0.03;;;9.60;99.90;;;;;;5079829;28;20571;-84
2022/10/19 03:25:08;;;;;;;0.10;0.10;;;11.30;99.90;;;;;;5078780;28;20503;-87
2022/10/19 03:27:35;;;;;;;0.10;0.10;;;9.70;99.90;;;;;;5088034;28;20050;-83
2022/10/19 03:30:03;;;;;;;0.10;0.10;;;9.70;99.90;;;;;;5083034;28;20072;-84
2022/10/19 03:32:30;;;;;;;0.10;0.10;;;9.70;99.90;;;;;;5086785;28;20685;-84
2022/10/19 03:34:57;;;;;;;0.05;0.05;;;9.80;99.90;;;;;;5079955;28;20044;-84
2022/10/19 03:37:23;;;;;;;0.00;0.00;;;9.80;99.90;;;;;;5085002;28;20067;-86
2022/10/19 03:39:52;;;;;;;0.00;0.00;;;9.90;99.90;;;;;;5083149;28;20445;-85
2022/10/19 03:42:18;;;;;;;0.10;0.10;;;9.90;99.90;;;;;;5083581;28;20134;-84
2022/10/19 03:44:45;;;;;;;0.00;0.00;;;9.90;99.90;;;;;;5086910;28;20137;-85
2022/10/19 03:47:12;;;;;;;0.00;0.00;;;9.90;99.90;;;;;;5084464;28;20499;-85
2022/10/19 03:49:39;;;;;;;0.10;0.10;;;9.90;99.90;;;;;;5076894;28;20058;-86
2022/10/19 03:52:08;;;;;;;0.10;0.10;;;;;;;;;;5082793;28;20044;-87
2022/10/19 03:54:35;;;;;;;0.10;0.10;;;10.00;99.90;;;;;;5076198;28;20047;-86
2022/10/19 03:57:03;;;;;;;0.00;0.00;;;10.00;99.90;;;;;;5081529;28;20123;-86
2022/10/19 03:59:30;;;;;;;0.10;0.10;;;10.00;99.90;;;;;;5081656;28;20526;-84
2022/10/19 04:01:57;;;;;;;0.00;0.00;;;10.10;99.90;;;;;;5082457;28;20396;-84
2022/10/19 04:04:24;;;;;;;0.10;0.10;;;10.10;99.90;;;;;;5078431;28;20040;-85
2022/10/19 04:06:52;;;;;;;0.10;0.10;;;10.10;99.90;;;;;;5084197;28;20042;-86
2022/10/19 04:09:21;;;;;;;0.10;0.10;;;10.10;99.90;;;;;;5078154;28;20080;-86
2022/10/19 04:11:49;;;;;;;0.10;0.10;;;10.20;99.90;;;;;;5081890;28;20081;-86
2022/10/19 04:14:19;;;;;;;0.00;0.00;;;10.20;99.90;;;;;;5076173;28;20047;-85
2022/10/19 04:16:58;;;;;;;0.00;0.00;;;10.30;99.90;;;;;;5079685;28;20043;-84
2022/10/19 04:19:25;;;;;;;0.00;0.00;;;10.20;99.90;;;;;;5078052;28;20050;-85
2022/10/19 04:21:52;;;;;;;0.00;0.00;;;10.20;99.90;;;;;;5072836;28;20493;-86
2022/10/19 04:24:19;;;;;;;0.10;0.10;;;10.20;99.90;;;;;;5080527;28;20047;-86
2022/10/19 04:26:47;;;;;;;0.10;0.10;;;10.20;99.90;;;;;;5086160;28;20040;-84
2022/10/19 04:29:17;;;;;;;0.10;0.10;;;11.70;99.90;;;;;;5079977;28;20044;-85
2022/10/19 04:31:45;;;;;;;;;;;10.20;99.90;;;;;;5079279;28;20049;-86
2022/10/19 04:34:11;;;;;;;0.10;0.10;;;10.60;99.90;;;;;;5080630;28;19920;-85
2022/10/19 04:36:38;;;;;;;0.10;0.10;;;10.20;99.90;;;;;;5070315;28;20151;-84
2022/10/19 04:39:06;;;;;;;0.00;0.00;;;10.10;99.90;;;;;;5081864;28;20101;-86
2022/10/19 04:41:33;;;;;;;0.10;0.10;;;10.10;99.90;;;;;;5085940;28;20432;-86
2022/10/19 04:44:02;;;;;;;0.05;0.05;;;10.20;99.90;;;;;;5091293;28;20084;-84
2022/10/19 04:46:30;;;;;;;0.10;0.10;;;10.30;99.90;;;;;;5094959;28;20076;-86
2022/10/19 04:48:59;;;;;;;0.00;0.00;;;10.30;99.90;;;;;;5085315;28;20115;-84
2022/10/19 04:51:26;;;;;;;0.00;0.00;;;10.30;99.90;;;;;;5087659;28;20036;-85
2022/10/19 04:53:55;;;;;;;0.10;0.10;;;10.30;99.90;;;;;;5077637;28;20083;-85
2022/10/19 04:56:26;;;;;;;0.03;0.03;;;10.40;99.90;;;;;;5075586;28;20028;-85
2022/10/19 04:58:55;;;;;;;0.00;0.00;;;10.50;99.90;;;;;;5081176;28;20124;-84
2022/10/19 05:01:24;;;;;;;0.10;0.10;;;10.30;99.90;;;;;;5077595;28;20042;-88
2022/10/19 05:03:54;;;;;;;0.00;0.00;;;10.30;99.90;;;;;;5078112;28;20047;-84
2022/10/19 05:06:23;;;;;;;0.10;0.10;;;11.70;99.90;;;;;;5081461;28;20040;-84
2022/10/19 05:08:50;;;;;;;0.10;0.10;;;10.30;99.90;;;;;;5082958;28;20048;-85
2022/10/19 05:11:18;;;;;;;0.10;0.10;;;10.30;99.90;;;;;;5084685;28;20075;-84
2022/10/19 05:13:45;;;;;;;0.05;0.05;;;10.30;99.90;;;;;;5085428;28;20133;-84
2022/10/19 05:16:13;;;;;;;0.00;0.00;;;10.30;99.90;;;;;;5083739;28;20047;-85
2022/10/19 05:18:40;;;;;;;0.00;0.00;;;10.30;99.90;;;;;;5086854;28;20032;-85
2022/10/19 05:21:10;;;;;;;0.10;0.10;;;10.40;99.90;;;;;;5085475;28;20036;-84
2022/10/19 05:23:38;;;;;;;;;;;10.40;99.90;;;;;;5086330;28;20042;-87
2022/10/19 05:26:07;;;;;;;0.00;0.00;;;10.50;99.90;;;;;;5088932;28;19920;-86
2022/10/19 05:28:35;;;;;;;0.03;0.03;;;10.50;99.90;;;;;;5084938;28;20575;-84
2022/10/19 05:31:07;;;;;;;0.10;0.10;;;10.50;99.90;;;;;;5090517;28;20061;-84
2022/10/19 05:33:35;;;;;;;0.00;0.00;;;;;;;;;;5080448;28;20048;-84
2022/10/19 05:36:18;;;;;;;0.10;0.10;;;10.40;99.90;;;;;;5084235;28;20503;-84
2022/10/19 05:38:46;;;;;;;0.00;0.00;;;10.50;99.90;;;;;;5079028;28;20207;-84
2022/10/19 05:41:14;;;;;;;0.00;0.00;;;10.50;99.90;;;;;;5082236;28;20032;-86
2022/10/19 05:43:41;;;;;;;0.00;0.00;;;10.50;99.90;;;;;;5083989;28;20044;-85
2022/10/19 05:46:10;;;;;;;0.00;0.00;;;10.40;99.90;;;;;;5081474;28;20040;-84
2022/10/19 05:48:38;;;;;;;0.10;0.10;;;10.50;99.90;;;;;;5081083;28;20071;-85
2022/10/19 05:51:06;;;;;;;0.00;0.00;;;10.50;99.90;;;;;;5079134;28;20076;-86
2022/10/19 05:53:35;;;;;;;0.10;0.10;;;10.50;99.90;;;;;;5086453;28;20131;-87
2022/10/19 05:56:03;;;;;;;0.00;0.00;;;10.50;99.90;;;;;;5092775;28;22884;-84
2022/10/19 05:58:31;;;;;;;0.00;0.00;;;10.50;99.90;;;;;;5081697;28;20125;-85
2022/10/19 06:00:58;;;;;;;0.00;0.00;;;12.90;99.90;;;;;;5087608;28;20044;-88
2022/10/19 06:03:26;;;;;;;0.00;0.00;;;10.60;99.90;;;;;;5080494;28;20040;-83
2022/10/19 06:05:54;;;;;;;0.00;0.00;;;10.60;99.90;;;;;;5081057;28;20518;-85
2022/10/19 06:08:22;;;;;;;0.00;0.00;;;10.50;99.90;;;;;;5080166;28;20130;-85
2022/10/19 06:10:51;;;;;;;0.00;0.00;;;10.50;99.90;;;;;;5086968;28;20044;-86
2022/10/19 06:13:19;;;;;;;0.00;0.00;;;10.50;99.90;;;;;;5085488;28;20050;-84
2022/10/19 06:15:49;;;;;;;0.00;0.00;;;10.50;99.90;;;;;;5079010;28;20048;-86
2022/10/19 06:18:17;;;;;;;0.00;0.00;;;;;;;;;;5079164;28;20128;-82
2022/10/19 06:20:44;;;;;;;0.00;0.00;;;10.60;99.90;;;;;;5083214;28;20052;-85
2022/10/19 06:23:10;;;;;;;0.08;0.08;;;10.60;99.90;;;;;;5079536;28;20127;-85
2022/10/19 06:25:39;;;;;;;0.05;0.05;;;10.50;99.90;;;;;;5084743;28;20138;-86
2022/10/19 06:28:07;;;;;;;0.00;0.00;;;10.60;99.90;;;;;;5083635;28;20036;-84
2022/10/19 06:30:37;;;;;;;0.00;0.00;;;10.60;99.90;;;;;;5080466;28;20062;-84
2022/10/19 06:33:04;;;;;;;;;;;10.70;99.90;;;;;;5082373;28;20082;-86
2022/10/19 06:35:31;;;;;;;0.00;0.00;;;;;;;;;;5081005;28;19959;-87
2022/10/19 06:37:59;;;;;;;0.00;0.00;;;10.70;99.90;;;;;;5083701;28;20478;-84
2022/10/19 06:40:26;;;;;;;0.00;0.00;;;13.20;99.90;;;;;;5084508;28;20170;-86
2022/10/19 06:42:53;;;;;;;0.00;0.00;;;10.70;99.90;;;;;;5084136;28;20508;-85
2022/10/19 06:45:22;;;;;;;0.10;0.10;;;10.70;99.90;;;;;;5085528;28;21920;-88
2022/10/19 06:47:48;;;;;;;0.00;0.00;;;10.60;99.90;;;;;;5088336;28;21415;-86
2022/10/19 06:50:15;;;;;;;0.00;0.00;;;10.60;99.90;;;;;;5079279;28;20076;-85
2022/10/19 06:52:42;;;;;;;0.00;0.00;;;10.60;99.90;;;;;;5077505;28;20045;-85
2022/10/19 06:55:09;;;;;;;0.00;0.00;;;10.70;99.90;;;;;;5088281;28;20075;-87
2022/10/19 06:57:36;;;;;;;0.00;0.00;;;10.80;99.90;;;;;;5084522;28;20498;-84
2022/10/19 07:00:05;;;;;;;0.00;0.00;;;10.80;99.90;;;;;;5080682;28;20044;-87
2022/10/19 07:02:33;;;;;;;0.00;0.00;;;10.80;99.90;;;;;;5077536;28;20143;-86
2022/10/19 07:05:00;;;;;;;0.00;0.00;;;10.90;99.90;;;;;;5081863;28;20080;-87
2022/10/19 07:07:33;;;;;;;0.00;0.00;;;10.90;99.90;;;;;;5081375;28;20090;-87
2022/10/19 07:10:00;;;;;;;0.00;0.00;;;11.00;99.90;;;;;;5079880;28;20051;-86
2022/10/19 07:12:27;;;;;;;0.00;0.00;;;12.80;99.90;;;;;;5086844;28;20048;-84
2022/10/19 07:14:55;;;;;;;0.00;0.00;;;11.10;99.90;;;;;;5075843;28;20093;-85
2022/10/19 07:17:21;;;;;;;0.00;0.00;;;10.90;99.90;;;;;;5084229;28;20535;-86
2022/10/19 07:19:49;;;;;;;0.00;0.00;;;11.00;99.90;;;;;;5079604;28;20051;-88
2022/10/19 07:22:16;;;;;;;0.00;0.00;;;12.00;99.90;;;;;;5082061;28;20515;-85
2022/10/19 07:24:51;;;;;;;0.00;0.00;;;11.10;99.90;;;;;;5085145;28;20041;-86
2022/10/19 07:27:18;;;;;;;0.00;0.00;;;11.20;99.90;;;;;;5082151;28;20070;-84
2022/10/19 07:29:45;;;;;;;0.00;0.00;;;11.20;99.90;;;;;;5075634;28;20040;-85
2022/10/19 07:32:11;;;;;;;0.00;0.00;;;11.20;99.90;;;;;;5081502;28;20048;-86
2022/10/19 07:34:38;;;;;;;0.00;0.00;;;11.20;99.90;;;;;;5100101;28;20042;-84
2022/10/19 07:37:06;;;;;;;0.00;0.00;;;11.30;99.90;;;;;;5079430;28;20037;-87
2022/10/19 07:39:33;;;;;;;0.00;0.00;;;12.60;99.90;;;;;;5079863;28;20128;-86
2022/10/19 07:42:00;;;;;;;0.00;0.00;;;11.30;99.90;;;;;;5083350;28;20101;-87
2022/10/19 07:44:27;;;;;;;0.00;0.00;;;11.30;99.90;;;;;;5081719;28;20048;-87
2022/10/19 07:46:54;;;;;;;0.00;0.00;;;13.00;99.90;;;;;;5076061;28;20037;-87
2022/10/19 07:49:21;;;;;;;0.00;0.00;;;11.30;99.90;;;;;;5087262;28;20044;-88
2022/10/19 07:51:52;;;;;;;0.00;0.00;;;;;;;;;;5082503;28;20064;-86
2022/10/19 07:54:22;;;;;;;0.00;0.00;;;11.50;99.90;;;;;;5077142;28;20067;-84
2022/10/19 07:56:49;;;;;;;0.00;0.00;;;11.50;99.90;;;;;;5080178;28;20416;-85
2022/10/19 07:59:16;;;;;;;0.00;0.00;;;11.60;99.90;;;;;;5082161;28;20114;-86
2022/10/19 08:01:43;;;;;;;0.00;0.00;;;11.70;99.90;;;;;;5087063;28;20043;-85
2022/10/19 08:04:10;;;;;;;0.00;0.00;;;13.40;99.90;;;;;;5083065;28;20048;-86
2022/10/19 08:06:57;;;;;;;0.00;0.00;;;12.00;99.90;;;;;;5080036;28;20056;-84
2022/10/19 08:09:25;;;;;;;0.00;0.00;;;11.90;99.90;;;;;;5081245;28;20480;-86
2022/10/19 08:12:12;;;;;;;0.00;0.00;;;12.00;99.90;;;;;;5081832;28;20071;-84
2022/10/19 08:14:41;;;;;;;0.00;0.00;;;12.10;99.90;;;;;;5078193;28;20049;-87
2022/10/19 08:17:10;;;;;;;0.00;0.00;;;12.10;99.90;;;;;;5082099;28;20399;-85
2022/10/19 08:19:41;;;;;;;0.00;0.00;;;12.00;99.90;;;;;;5086429;28;20048;-84
2022/10/19 08:22:09;;;;;;;0.00;0.00;;;11.90;99.90;;;;;;5077211;28;20045;-85
2022/10/19 08:24:37;;;;;;;0.00;0.00;;;12.00;99.90;;;;;;5070266;28;20484;-84
2022/10/19 08:27:04;;;;;;;0.00;0.00;;;12.10;99.90;;;;;;5072009;28;20741;-83
2022/10/19 08:29:31;;;;;;;0.00;0.00;;;12.00;99.90;;;;;;5080697;28;20532;-87
2022/10/19 08:31:58;;;;;;;0.00;0.00;;;12.10;99.90;;;;;;5085279;28;20072;-85
2022/10/19 08:34:25;;;;;;;0.00;0.00;;;12.30;99.90;;;;;;5080665;28;20505;-85
2022/10/19 08:36:52;;;;;;;0.00;0.00;;;12.30;99.90;;;;;;5081324;28;20087;-85
2022/10/19 08:39:19;;;;;;;0.00;0.00;;;12.20;99.90;;;;;;5086951;28;20525;-85
2022/10/19 08:41:58;;;;;;;0.00;0.00;;;12.30;99.90;;;;;;5077467;28;20044;-84
2022/10/19 08:44:52;;;;;;;0.00;0.00;;;12.60;99.90;;;;;;5080164;28;20071;-85
2022/10/19 08:47:30;;;;;;;0.00;0.00;;;12.40;99.90;;;;;;5080138;28;20051;-84
2022/10/19 08:49:58;;;;;;;0.00;0.00;;;12.40;99.90;;;;;;5086523;28;20675;-84
2022/10/19 08:52:29;;;;;;;0.00;0.00;;;12.50;99.90;;;;;;5075507;28;20789;-85
2022/10/19 08:55:03;;;;;;;0.00;0.00;;;12.40;99.90;;;;;;5082300;28;20032;-85
2022/10/19 08:57:42;;;;;;;0.00;0.00;;;13.10;99.90;;;;;;5076225;28;20083;-87
2022/10/19 09:00:14;;;;;;;0.00;0.00;;;12.50;99.90;;;;;;5084808;28;20115;-84
2022/10/19 09:02:55;;;;;;;0.00;0.00;;;12.50;99.90;;;;;;5086914;28;20339;-84
2022/10/19 09:05:31;;;;;;;0.00;0.00;;;12.50;99.90;;;;;;5077698;28;20123;-85
2022/10/19 09:07:58;;;;;;;0.00;0.00;;;12.60;99.90;;;;;;5080401;28;20103;-89
2022/10/19 09:10:28;;;;;;;0.00;0.00;;;12.60;99.90;;;;;;5076110;28;20047;-82
2022/10/19 09:12:59;;;;;;;0.00;0.00;;;13.90;99.90;;;;;;5083654;28;20408;-87
2022/10/19 09:15:35;;;;;;;0.00;0.00;;;12.60;99.90;;;;;;5085376;28;20063;-84
2022/10/19 09:18:02;;;;;;;0.00;0.00;;;12.70;99.90;;;;;;5080208;28;20127;-85
2022/10/19 09:20:34;;;;;;;0.00;0.00;;;12.90;99.90;;;;;;5082857;28;20134;-85
2022/10/19 09:23:06;;;;;;;0.00;0.00;;;13.10;99.90;;;;;;5080100;28;20380;-84
2022/10/19 09:25:39;;;;;;;0.00;0.00;;;13.30;99.90;;;;;;5086867;28;20491;-83
2022/10/19 09:28:23;;;;;;;0.00;0.00;;;14.30;99.90;;;;;;5079774;28;20028;-86
2022/10/19 09:31:00;;;;;;;0.00;0.00;;;;;;;;;;5066942;28;20060;-86
2022/10/19 09:33:33;;;;;;;0.00;0.00;;;13.50;99.90;;;;;;5072986;28;20123;-86
2022/10/19 09:36:03;;;;;;;0.00;0.00;;;14.10;99.90;;;;;;5083366;28;20040;-84
2022/10/19 09:38:30;;;;;;;0.00;0.00;;;13.60;99.90;;;;;;5079936;28;20138;-86
2022/10/19 09:40:57;;;;;;;0.00;0.00;;;14.50;99.90;;;;;;5073999;28;20059;-86
2022/10/19 09:43:27;;;;;;;0.00;0.00;;;13.70;99.90;;;;;;5083958;28;20036;-86
2022/10/19 09:45:57;;;;;;;0.00;0.00;;;13.90;99.90;;;;;;5071993;28;20148;-84
2022/10/19 09:48:30;;;;;;;0.00;0.00;;;13.90;99.90;;;;;;5082396;28;20480;-86
2022/10/19 09:50:59;;;;;;;0.00;0.00;;;13.90;99.90;;;;;;5080744;28;20178;-86
2022/10/19 09:53:27;;;;;;;0.00;0.00;;;13.90;99.90;;;;;;5083380;28;20472;-86
2022/10/19 09:56:01;;;;;;;0.00;0.00;;;13.60;99.90;;;;;;5075843;28;21889;-86
2022/10/19 09:58:29;;;;;;;0.00;0.00;;;13.70;99.90;;;;;;5083520;28;20051;-86
2022/10/19 10:01:00;;;;;;;0.00;0.00;;;13.60;99.90;;;;;;5077655;28;20447;-86
2022/10/19 10:03:29;;;;;;;0.00;0.00;;;13.80;99.90;;;;;;5084129;28;20043;-86
2022/10/19 10:05:58;;;;;;;0.00;0.00;;;14.00;99.90;;;;;;5081551;28;20184;-87
2022/10/19 10:08:28;;;;;;;0.00;0.00;;;14.10;99.90;;;;;;5088264;28;20492;-85
2022/10/19 10:11:05;;;;;;;0.00;0.00;;;14.80;99.90;;;;;;5088321;28;20044;-85
2022/10/19 10:13:38;;;;;;;0.00;0.00;;;14.20;99.90;;;;;;5081605;28;20056;-85
2022/10/19 10:16:08;;;;;;;0.00;0.00;;;14.30;99.90;;;;;;5077713;28;20055;-85
2022/10/19 10:18:37;;;;;;;0.00;0.00;;;14.50;99.90;;;;;;5084334;28;20501;-83
2022/10/19 10:21:12;;;;;;;0.00;0.00;;;14.20;99.90;;;;;;5078185;28;20054;-86
2022/10/19 10:23:39;;;;;;;0.00;0.00;;;14.20;99.90;;;;;;5088603;28;20052;-85
2022/10/19 10:26:17;;;;;;;0.00;0.00;;;14.20;99.90;;;;;;5089298;28;20040;-86
2022/10/19 10:28:49;;;;;;;0.00;0.00;;;15.40;99.90;;;;;;5079532;28;20047;-86
2022/10/19 10:31:22;;;;;;;0.00;0.00;;;14.20;99.90;;;;;;5082150;28;20118;-85
2022/10/19 10:33:56;;;;;;;0.00;0.00;;;15.30;99.90;;;;;;5079625;28;20144;-86
2022/10/19 10:36:42;;;;;;;0.00;0.00;;;14.30;99.90;;;;;;5084020;28;20550;-86
2022/10/19 10:39:14;;;;;;;0.00;0.00;;;14.30;99.90;;;;;;5084167;28;20625;-84
2022/10/19 10:41:43;;;;;;;0.00;0.00;;;14.50;99.90;;;;;;5088886;28;20082;-86
2022/10/19 10:44:18;;;;;;;0.00;0.00;;;15.90;99.90;;;;;;5085829;28;20127;-85
2022/10/19 10:46:51;;;;;;;0.00;0.00;;;14.50;99.90;;;;;;5087805;28;20140;-83
2022/10/19 10:49:22;;;;;;;0.00;0.00;;;15.30;99.90;;;;;;5089187;28;20499;-82
2022/10/19 10:51:52;;;;;;;0.00;0.00;;;14.60;99.90;;;;;;5084281;28;20098;-87
2022/10/19 10:54:21;;;;;;;0.00;0.00;;;14.60;99.90;;;;;;5089698;28;20040;-84
2022/10/19 10:57:12;;;;;;;0.00;0.00;;;14.70;99.90;;;;;;5089963;28;20052;-84
2022/10/19 10:59:48;;;;;;;0.00;0.00;;;14.80;99.90;;;;;;5077495;28;20503;-86
2022/10/19 11:02:26;;;;;;;0.00;0.00;;;15.10;99.90;;;;;;5083561;28;20059;-83
2022/10/19 11:04:58;;;;;;;0.00;0.00;;;14.90;99.90;;;;;;5082797;28;20495;-85
2022/10/19 11:07:27;;;;;;;0.00;0.00;;;14.90;99.90;;;;;;5089252;28;20066;-86
2022/10/19 11:09:57;;;;;;;0.00;0.00;;;14.70;99.90;;;;;;5086646;28;20480;-86
2022/10/19 11:12:33;;;;;;;0.00;0.00;;;14.60;99.90;;;;;;5086574;28;20047;-84
2022/10/19 11:15:12;;;;;;;0.00;0.00;;;15.10;99.90;;;;;;5080927;28;20052;-86
2022/10/19 11:17:50;;;;;;;0.00;0.00;;;14.40;99.90;;;;;;5078170;28;20029;-86
2022/10/19 11:20:17;;;;;;;0.00;0.00;;;14.50;99.90;;;;;;5082692;28;20131;-88
2022/10/19 11:22:52;;;;;;;0.00;0.00;;;14.50;99.90;;;;;;5085966;28;20109;-85
2022/10/19 11:25:28;;;;;;;0.00;0.00;;;14.50;99.90;;;;;;5084934;28;20173;-85
2022/10/19 11:28:10;;;;;;;0.00;0.00;;;14.60;99.90;;;;;;5083707;28;20511;-84
2022/10/19 11:30:47;;;;;;;0.00;0.00;;;14.70;99.90;;;;;;5083099;28;20142;-86
2022/10/19 11:33:36;;;;;;;0.00;0.00;;;14.60;99.90;;;;;;5085609;28;20532;-85
2022/10/19 11:36:14;;;;;;;0.00;0.00;;;16.50;99.90;;;;;;5077698;28;20538;-86
2022/10/19 11:38:54;;;;;;;0.00;0.00;;;14.40;99.90;;;;;;5089618;28;20063;-86
2022/10/19 11:41:29;;;;;;;0.00;0.00;;;14.30;99.90;;;;;;5079081;28;20070;-86
2022/10/19 11:44:16;;;;;;;0.00;0.00;;;14.20;99.90;;;;;;5084714;28;20131;-86
2022/10/19 11:46:54;;;;;;;0.00;0.00;;;14.10;99.90;;;;;;5086922;28;20046;-83
2022/10/19 11:49:39;;;;;;;0.00;0.00;;;15.90;99.90;;;;;;5082518;28;20032;-87
2022/10/19 11:52:13;;;;;;;0.00;0.00;;;14.60;99.90;;;;;;5083801;28;20143;-86
2022/10/19 11:54:54;;;;;;;0.00;0.00;;;14.70;99.90;;;;;;5076745;28;20162;-84
2022/10/19 11:57:24;;;;;;;0.00;0.00;;;14.80;99.90;;;;;;5071694;28;20072;-85
2022/10/19 12:00:01;;;;;;;0.03;0.00;;;15.00;99.90;;;;;;5079256;28;20043;-86
2022/10/19 12:03:06;;;;;;;0.00;0.00;;;14.60;99.90;;;;;;5079146;28;20523;-85
2022/10/19 12:05:39;;;;;;;0.00;0.00;;;14.40;99.90;;;;;;5076050;28;20125;-86
2022/10/19 12:08:22;;;;;;;0.00;0.00;;;14.40;99.90;;;;;;5083676;28;20032;-88
2022/10/19 12:11:02;;;;;;;0.00;0.00;;;14.70;99.90;;;;;;5079700;28;20673;-84
2022/10/19 12:13:33;;;;;;;;;;;14.30;99.90;;;;;;5078148;28;20136;-83
2022/10/19 12:16:00;;;;;;;0.00;0.00;;;14.20;99.90;;;;;;5083510;28;19920;-83
2022/10/19 12:18:35;;;;;;;0.00;0.00;;;14.40;99.90;;;;;;5077461;28;20540;-85
2022/10/19 12:21:08;;;;;;;0.00;0.00;;;14.30;99.90;;;;;;5077128;28;20044;-83
2022/10/19 12:23:37;;;;;;;0.00;0.00;;;14.30;99.90;;;;;;5084959;28;20139;-83
2022/10/19 12:26:07;;;;;;;0.00;0.00;;;14.20;99.90;;;;;;5073054;28;20055;-86
2022/10/19 12:28:37;;;;;;;0.00;0.00;;;14.20;99.90;;;;;;5078363;28;20044;-84
2022/10/19 12:31:05;;;;;;;0.00;0.00;;;14.60;99.90;;;;;;5074729;28;20115;-82
2022/10/19 12:33:46;;;;;;;0.00;0.00;;;14.40;99.90;;;;;;5074958;28;20133;-85
2022/10/19 12:36:25;;;;;;;0.00;0.00;;;14.30;99.90;;;;;;5077099;28;20044;-85
2022/10/19 12:38:59;;;;;;;0.00;0.00;;;14.30;99.90;;;;;;5083002;28;20136;-84
2022/10/19 12:41:35;;;;;;;0.00;0.00;;;14.50;99.90;;;;;;5084155;28;20075;-85
2022/10/19 12:44:17;;;;;;;0.00;0.00;;;14.40;99.90;;;;;;5076198;28;20050;-85
2022/10/19 12:46:48;;;;;;;0.00;0.00;;;14.20;99.90;;;;;;5076698;28;20052;-85
2022/10/19 12:49:42;;;;;;;0.00;0.00;;;14.10;99.90;;;;;;5074268;28;20117;-85
2022/10/19 12:52:09;;;;;;;0.00;0.00;;;14.30;99.90;;;;;;5076889;28;20047;-85
2022/10/19 12:54:39;;;;;;;0.00;0.00;;;14.30;99.90;;;;;;5080699;28;20514;-83
2022/10/19 12:57:22;;;;;;;0.00;0.00;;;14.40;99.90;;;;;;5077021;28;20062;-84
2022/10/19 12:59:58;;;;;;;0.00;0.00;;;14.50;99.90;;;;;;5081563;28;20242;-85
2022/10/19 13:02:29;;;;;;;0.00;0.00;;;14.60;99.90;;;;;;5073418;28;20574;-86
2022/10/19 13:04:57;;;;;;;0.00;0.00;;;14.60;99.90;;;;;;5077374;28;20500;-84
2022/10/19 13:07:26;;;;;;;0.00;0.00;;;14.80;99.90;;;;;;5078680;28;20066;-85
2022/10/19 13:10:00;;;;;;;0.00;0.00;;;14.70;99.90;;;;;;5074764;28;20078;-83
2022/10/19 13:12:41;;;;;;;0.00;0.00;;;14.70;99.90;;;;;;5074860;28;20047;-84